createdAt,value
2018-05-17T00:00:47.443Z,14.45
2018-05-17T00:03:14.920Z,11.85
2018-05-17T00:05:42.384Z,9.73
2018-05-17T00:08:09.856Z,10.02
2018-05-17T00:10:37.287Z,18.12
2018-05-17T00:13:05.514Z,10.48
2018-05-17T00:15:32.950Z,11.10
2018-05-17T00:18:01.139Z,10.50
2018-05-17T00:20:29.334Z,10.68
2018-05-17T00:22:57.539Z,11.23
2018-05-17T00:25:24.966Z,10.75
2018-05-17T00:27:52.486Z,10.70
2018-05-17T00:30:19.958Z,12.15
2018-05-17T00:32:47.421Z,11.52
2018-05-17T00:35:14.850Z,10.45
2018-05-17T00:37:43.082Z,9.93
2018-05-17T00:40:10.510Z,10.57
2018-05-17T00:42:38.738Z,11.63
2018-05-17T00:45:06.209Z,13.88
2018-05-17T00:47:33.631Z,11.00
2018-05-17T00:50:01.851Z,12.18
2018-05-17T00:52:30.054Z,13.15
2018-05-17T00:54:57.518Z,12.13
2018-05-17T00:57:24.950Z,12.13
2018-05-17T00:59:52.462Z,12.60
2018-05-17T01:02:19.926Z,15.40
2018-05-17T01:04:47.374Z,15.35
2018-05-17T01:07:15.574Z,12.37
2018-05-17T01:09:43.058Z,13.32
2018-05-17T01:12:10.528Z,17.08
2018-05-17T01:14:38.097Z,19.10
2018-05-17T01:17:06.390Z,19.40
2018-05-17T01:19:33.863Z,17.73
2018-05-17T01:22:01.294Z,18.87
2018-05-17T01:24:29.483Z,14.80
2018-05-17T01:26:57.683Z,20.70
2018-05-17T01:29:25.223Z,23.30
2018-05-17T01:31:52.606Z,21.85
2018-05-17T01:34:20.794Z,24.52
2018-05-17T01:37:00.998Z,20.50
2018-05-17T01:39:28.483Z,22.50
2018-05-17T01:41:55.913Z,27.55
2018-05-17T01:44:24.119Z,26.42
2018-05-17T01:46:51.559Z,34.95
2018-05-17T01:49:19.752Z,25.23
2018-05-17T01:51:47.971Z,28.95
2018-05-17T01:54:15.443Z,21.77
2018-05-17T01:56:42.910Z,32.78
2018-05-17T01:59:10.334Z,28.67
2018-05-17T02:01:37.763Z,28.92
2018-05-17T02:04:05.225Z,27.42
2018-05-17T02:06:32.647Z,30.00
2018-05-17T02:09:00.153Z,31.20
2018-05-17T02:11:27.618Z,29.15
2018-05-17T02:13:55.094Z,27.85
2018-05-17T02:16:22.518Z,30.92
2018-05-17T02:18:49.952Z,30.55
2018-05-17T02:21:17.407Z,30.80
2018-05-17T02:23:44.877Z,34.95
2018-05-17T02:26:12.303Z,29.55
2018-05-17T02:28:39.835Z,28.05
2018-05-17T02:31:07.291Z,30.77
2018-05-17T02:33:34.718Z,33.67
2018-05-17T02:36:02.915Z,32.35
2018-05-17T02:38:31.124Z,29.65
2018-05-17T02:40:58.698Z,28.33
2018-05-17T02:43:26.130Z,30.02
2018-05-17T02:45:54.318Z,32.72
2018-05-17T02:48:22.519Z,27.65
2018-05-17T02:50:50.715Z,33.40
2018-05-17T02:53:18.151Z,28.73
2018-05-17T02:55:46.344Z,30.23
2018-05-17T02:58:14.542Z,29.42
2018-05-17T03:00:42.736Z,35.83
2018-05-17T03:03:10.925Z,30.73
2018-05-17T03:05:39.130Z,32.05
2018-05-17T03:08:06.559Z,41.60
2018-05-17T03:10:33.990Z,31.55
2018-05-17T03:13:01.441Z,39.80
2018-05-17T03:15:28.875Z,29.85
2018-05-17T03:17:57.098Z,30.25
2018-05-17T03:20:24.667Z,30.70
2018-05-17T03:22:52.874Z,30.42
2018-05-17T03:25:20.326Z,30.35
2018-05-17T03:27:47.758Z,30.75
2018-05-17T03:30:15.986Z,36.03
2018-05-17T03:32:43.415Z,37.92
2018-05-17T03:35:11.618Z,32.05
2018-05-17T03:37:39.832Z,30.95
2018-05-17T03:40:07.262Z,38.45
2018-05-17T03:42:35.486Z,32.20
2018-05-17T03:45:02.954Z,30.45
2018-05-17T03:47:30.378Z,32.70
2018-05-17T03:49:57.810Z,35.67
2018-05-17T03:52:25.234Z,32.83
2018-05-17T03:54:53.547Z,30.70
2018-05-17T03:57:21.766Z,29.70
2018-05-17T03:59:49.203Z,34.08
2018-05-17T04:02:28.863Z,31.70
2018-05-17T04:05:08.459Z,30.10
2018-05-17T04:07:35.737Z,32.92
2018-05-17T04:10:03.166Z,28.25
2018-05-17T04:12:30.597Z,32.25
2018-05-17T04:14:59.400Z,28.75
2018-05-17T04:17:26.891Z,31.33
2018-05-17T04:19:54.321Z,27.67
2018-05-17T04:22:21.750Z,29.52
2018-05-17T04:24:49.179Z,33.40
2018-05-17T04:27:17.374Z,34.45
2018-05-17T04:29:44.798Z,29.10
2018-05-17T04:32:12.231Z,28.05
2018-05-17T04:34:39.655Z,21.23
2018-05-17T04:37:07.171Z,27.08
2018-05-17T04:39:34.594Z,26.02
2018-05-17T04:42:02.206Z,24.65
2018-05-17T04:44:30.391Z,27.58
2018-05-17T04:46:57.867Z,26.33
2018-05-17T04:49:25.379Z,20.75
2018-05-17T04:51:52.770Z,27.52
2018-05-17T04:54:20.961Z,26.02
2018-05-17T04:56:49.182Z,28.80
2018-05-17T04:59:17.510Z,23.70
2018-05-17T05:01:45.042Z,24.70
2018-05-17T05:04:12.511Z,23.50
2018-05-17T05:06:39.977Z,23.50
2018-05-17T05:09:07.402Z,19.42
2018-05-17T05:11:34.918Z,23.90
2018-05-17T05:14:02.347Z,21.48
2018-05-17T05:16:29.779Z,27.27
2018-05-17T05:18:57.206Z,22.10
2018-05-17T05:21:25.413Z,22.58
2018-05-17T05:23:52.846Z,23.45
2018-05-17T05:26:21.074Z,29.67
2018-05-17T05:28:48.508Z,25.27
2018-05-17T05:31:16.697Z,22.48
2018-05-17T05:33:44.906Z,20.70
2018-05-17T05:36:12.330Z,23.42
2018-05-17T05:38:39.763Z,25.08
2018-05-17T05:41:07.222Z,25.25
2018-05-17T05:43:34.691Z,23.17
2018-05-17T05:46:02.262Z,20.75
2018-05-17T05:48:29.684Z,28.00
2018-05-17T05:50:57.107Z,17.45
2018-05-17T05:53:24.534Z,22.00
2018-05-17T05:55:52.726Z,21.25
2018-05-17T05:58:20.923Z,16.60
2018-05-17T06:00:49.110Z,23.42
2018-05-17T06:03:17.306Z,20.65
2018-05-17T06:05:44.731Z,23.58
2018-05-17T06:08:12.159Z,24.48
2018-05-17T06:10:39.622Z,21.73
2018-05-17T06:13:07.050Z,16.77
2018-05-17T06:15:35.252Z,21.20
2018-05-17T06:18:02.847Z,21.30
2018-05-17T06:20:30.330Z,26.87
2018-05-17T06:22:57.754Z,18.67
2018-05-17T06:25:25.262Z,18.60
2018-05-17T06:27:52.690Z,20.60
2018-05-17T06:30:20.173Z,21.92
2018-05-17T06:32:47.579Z,24.63
2018-05-17T06:35:15.042Z,18.70
2018-05-17T06:37:42.512Z,17.23
2018-05-17T06:40:10.654Z,20.60
2018-05-17T06:42:38.847Z,29.87
2018-05-17T06:45:07.047Z,24.08
2018-05-17T06:47:35.234Z,26.35
2018-05-17T06:50:03.426Z,22.92
2018-05-17T06:52:30.849Z,25.12
2018-05-17T06:54:58.283Z,27.42
2018-05-17T06:57:25.706Z,18.85
2018-05-17T06:59:53.938Z,22.00
2018-05-17T07:02:21.366Z,25.83
2018-05-17T07:04:48.807Z,18.17
2018-05-17T07:07:16.230Z,22.25
2018-05-17T07:09:44.422Z,20.55
2018-05-17T07:12:11.899Z,22.30
2018-05-17T07:14:39.325Z,27.40
2018-05-17T07:17:08.255Z,18.30
2018-05-17T07:19:36.464Z,21.73
2018-05-17T07:22:03.882Z,24.95
2018-05-17T07:24:32.837Z,25.27
2018-05-17T07:27:00.270Z,21.33
2018-05-17T07:29:28.459Z,19.80
2018-05-17T07:31:56.682Z,23.87
2018-05-17T07:34:24.109Z,17.85
2018-05-17T07:36:51.625Z,23.25
2018-05-17T07:39:19.100Z,21.50
2018-05-17T07:41:47.279Z,17.90
2018-05-17T07:44:14.702Z,24.87
2018-05-17T07:46:42.202Z,23.90
2018-05-17T07:49:09.558Z,18.08
2018-05-17T08:04:42.598Z,21.40
2018-05-17T08:07:10.043Z,18.75
2018-05-17T08:09:37.474Z,25.88
2018-05-17T08:12:04.902Z,21.12
2018-05-17T08:14:32.326Z,15.38
2018-05-17T08:16:59.792Z,22.67
2018-05-17T08:19:27.260Z,18.37
2018-05-17T08:21:54.696Z,21.00
2018-05-17T08:24:22.919Z,20.90
2018-05-17T08:26:50.341Z,22.70
2018-05-17T08:29:18.535Z,24.92
2018-05-17T08:31:46.730Z,22.33
2018-05-17T08:34:14.916Z,18.42
2018-05-17T08:36:43.185Z,25.50
2018-05-17T08:39:10.554Z,19.80
2018-05-17T08:41:38.066Z,22.58
2018-05-17T08:44:05.499Z,23.15
2018-05-17T08:46:32.922Z,21.17
2018-05-17T08:49:00.381Z,21.83
2018-05-17T08:51:27.802Z,20.48
2018-05-17T08:53:55.229Z,25.83
2018-05-17T08:56:22.650Z,21.30
2018-05-17T08:58:50.842Z,22.70
2018-05-17T09:01:19.058Z,20.48
2018-05-17T09:03:46.527Z,18.90
2018-05-17T09:06:14.013Z,22.62
2018-05-17T09:08:41.428Z,21.87
2018-05-17T09:11:08.948Z,27.05
2018-05-17T09:13:36.420Z,20.35
2018-05-17T09:16:03.829Z,18.92
2018-05-17T09:18:31.254Z,24.08
2018-05-17T09:20:58.680Z,20.75
2018-05-17T09:23:26.898Z,23.40
2018-05-17T09:25:54.368Z,19.67
2018-05-17T09:28:21.838Z,20.10
2018-05-17T09:30:49.263Z,19.37
2018-05-17T09:33:16.695Z,19.00
2018-05-17T09:35:44.159Z,12.37
2018-05-17T09:38:11.575Z,22.75
2018-05-17T09:40:39.000Z,20.90
2018-05-17T09:43:06.460Z,22.02
2018-05-17T09:45:33.878Z,17.98
2018-05-17T09:48:02.810Z,18.20
2018-05-17T09:50:30.318Z,19.23
2018-05-17T09:52:57.768Z,23.92
2018-05-17T09:55:25.190Z,16.80
2018-05-17T09:57:52.706Z,25.55
2018-05-17T10:00:21.990Z,20.30
2018-05-17T10:02:50.174Z,18.40
2018-05-17T10:05:18.375Z,21.62
2018-05-17T10:07:46.565Z,20.50
2018-05-17T10:10:14.764Z,22.35
2018-05-17T10:12:42.242Z,17.20
2018-05-17T10:15:09.708Z,18.50
2018-05-17T10:17:37.177Z,21.10
2018-05-17T10:20:04.656Z,18.12
2018-05-17T10:22:32.074Z,22.48
2018-05-17T10:24:59.590Z,19.00
2018-05-17T10:27:27.062Z,22.00
2018-05-17T10:29:54.499Z,15.93
2018-05-17T10:32:22.690Z,15.23
2018-05-17T10:34:50.879Z,20.12
2018-05-17T10:37:19.086Z,21.50
2018-05-17T10:39:46.557Z,19.23
2018-05-17T10:42:14.009Z,23.17
2018-05-17T10:44:41.406Z,17.48
2018-05-17T10:47:08.863Z,25.35
2018-05-17T10:49:36.339Z,20.60
2018-05-17T10:52:04.729Z,17.15
2018-05-17T10:54:32.169Z,14.57
2018-05-17T10:56:59.673Z,20.37
2018-05-17T10:59:27.096Z,19.30
2018-05-17T11:01:54.603Z,14.32
2018-05-17T11:04:22.074Z,18.30
2018-05-17T11:06:49.549Z,19.67
2018-05-17T11:09:17.010Z,19.05
2018-05-17T11:11:44.443Z,18.10
2018-05-17T11:14:11.867Z,16.55
2018-05-17T11:16:39.294Z,15.23
2018-05-17T11:19:07.485Z,15.55
2018-05-17T11:21:35.700Z,15.27
2018-05-17T11:24:03.123Z,16.77
2018-05-17T11:26:31.359Z,23.08
2018-05-17T11:28:58.790Z,19.08
2018-05-17T11:31:27.011Z,22.65
2018-05-17T11:33:54.430Z,15.52
2018-05-17T11:36:21.946Z,18.42
2018-05-17T11:38:49.370Z,17.42
2018-05-17T11:41:16.803Z,15.02
2018-05-17T11:43:44.260Z,19.25
2018-05-17T11:46:11.726Z,20.75
2018-05-17T11:48:39.206Z,18.35
2018-05-17T11:51:06.642Z,16.00
2018-05-17T11:53:34.841Z,21.92
2018-05-17T11:56:03.027Z,20.50
2018-05-17T11:58:30.515Z,24.60
2018-05-17T12:00:57.931Z,18.42
2018-05-17T12:03:25.357Z,17.87
2018-05-17T12:05:52.782Z,17.48
2018-05-17T12:08:20.978Z,16.58
2018-05-17T12:10:49.169Z,21.60
2018-05-17T12:13:17.386Z,19.45
2018-05-17T12:15:44.855Z,21.20
2018-05-17T12:18:12.315Z,27.27
2018-05-17T12:20:39.787Z,17.67
2018-05-17T12:23:07.292Z,23.10
2018-05-17T12:25:35.454Z,22.65
2018-05-17T12:28:02.881Z,19.95
2018-05-17T12:30:30.323Z,17.70
2018-05-17T12:32:57.750Z,20.52
2018-05-17T12:35:25.220Z,17.60
2018-05-17T12:37:52.650Z,25.73
2018-05-17T12:40:20.075Z,19.67
2018-05-17T12:42:47.540Z,12.80
2018-05-17T12:45:14.963Z,15.38
2018-05-17T12:47:43.183Z,21.25
2018-05-17T12:50:10.602Z,16.50
2018-05-17T12:52:38.135Z,20.30
2018-05-17T12:55:05.545Z,16.37
2018-05-17T12:57:32.978Z,19.40
2018-05-17T13:00:00.402Z,19.33
2018-05-17T13:02:28.623Z,20.35
2018-05-17T13:04:56.042Z,17.55
2018-05-17T13:07:24.974Z,16.50
2018-05-17T13:09:53.210Z,14.60
2018-05-17T13:12:20.626Z,14.77
2018-05-17T13:14:48.835Z,17.52
2018-05-17T13:17:16.260Z,13.85
2018-05-17T13:19:43.697Z,19.77
2018-05-17T13:22:11.150Z,16.65
2018-05-17T13:24:38.590Z,18.33
2018-05-17T13:27:06.778Z,21.08
2018-05-17T13:29:35.002Z,19.98
2018-05-17T13:32:02.463Z,16.62
2018-05-17T13:34:30.031Z,21.95
2018-05-17T13:36:57.459Z,22.75
2018-05-17T13:39:24.975Z,17.83
2018-05-17T13:41:52.438Z,18.65
2018-05-17T13:44:19.870Z,15.07
2018-05-17T13:46:47.299Z,22.45
2018-05-17T13:49:14.800Z,22.73
2018-05-17T13:51:42.918Z,17.90
2018-05-17T13:54:11.123Z,18.08
2018-05-17T13:56:38.599Z,16.45
2018-05-17T13:59:06.030Z,23.10
2018-05-17T14:01:34.246Z,25.23
2018-05-17T14:04:01.671Z,20.08
2018-05-17T14:06:29.250Z,26.33
2018-05-17T14:08:56.658Z,18.25
2018-05-17T14:11:24.125Z,22.25
2018-05-17T14:13:51.720Z,18.00
2018-05-17T14:16:18.988Z,21.58
2018-05-17T14:18:46.417Z,26.37
2018-05-17T14:21:14.627Z,24.33
2018-05-17T14:23:42.103Z,20.95
2018-05-17T14:26:11.026Z,25.73
2018-05-17T14:28:38.454Z,23.20
2018-05-17T14:31:05.894Z,23.70
2018-05-17T14:33:33.315Z,27.73
2018-05-17T14:36:00.754Z,29.63
2018-05-17T14:38:28.941Z,26.80
2018-05-17T14:40:57.143Z,26.77
2018-05-17T14:43:24.618Z,33.90
2018-05-17T14:45:52.050Z,26.25
2018-05-17T14:48:20.281Z,24.15
2018-05-17T14:50:47.712Z,19.48
2018-05-17T14:53:15.926Z,22.62
2018-05-17T14:55:43.374Z,20.90
2018-05-17T14:58:11.594Z,22.00
2018-05-17T15:00:39.058Z,26.00
2018-05-17T15:03:06.484Z,24.48
2018-05-17T15:05:33.994Z,26.62
2018-05-17T15:08:01.475Z,23.83
2018-05-17T15:10:28.934Z,25.50
2018-05-17T15:12:56.410Z,21.30
2018-05-17T15:15:23.829Z,26.02
2018-05-17T15:17:52.766Z,22.90
2018-05-17T15:20:20.199Z,29.92
2018-05-17T15:22:47.731Z,20.65
2018-05-17T15:25:15.150Z,29.90
2018-05-17T15:27:42.662Z,23.98
2018-05-17T15:30:10.090Z,25.37
2018-05-17T15:32:37.527Z,24.27
2018-05-17T15:35:04.944Z,22.50
2018-05-17T15:37:33.134Z,17.10
2018-05-17T15:40:01.346Z,21.87
2018-05-17T15:42:28.773Z,25.02
2018-05-17T15:44:56.960Z,30.20
2018-05-17T15:47:25.186Z,21.08
2018-05-17T15:49:52.607Z,24.73
2018-05-17T15:52:20.126Z,16.87
2018-05-17T15:54:47.542Z,17.20
2018-05-17T15:57:14.974Z,22.48
2018-05-17T15:59:42.394Z,18.23
2018-05-17T16:02:10.614Z,30.35
2018-05-17T16:04:38.191Z,18.85
2018-05-17T16:07:06.367Z,21.45
2018-05-17T16:09:33.851Z,24.27
2018-05-17T16:12:01.322Z,22.30
2018-05-17T16:14:28.788Z,19.23
2018-05-17T16:16:56.218Z,22.45
2018-05-17T16:19:23.651Z,22.77
2018-05-17T16:21:51.110Z,20.37
2018-05-17T16:24:19.271Z,20.08
2018-05-17T16:26:46.690Z,20.30
2018-05-17T16:29:14.219Z,32.80
2018-05-17T16:31:41.694Z,21.65
2018-05-17T16:34:09.169Z,28.30
2018-05-17T16:36:36.597Z,26.70
2018-05-17T16:39:05.655Z,25.15
2018-05-17T16:41:33.078Z,29.02
2018-05-17T16:44:01.274Z,27.87
2018-05-17T16:46:29.474Z,23.08
2018-05-17T16:48:56.950Z,23.62
2018-05-17T16:51:24.370Z,23.00
2018-05-17T16:53:51.809Z,22.45
2018-05-17T16:56:19.259Z,26.23
2018-05-17T16:58:46.812Z,23.33
2018-05-17T17:01:14.158Z,25.17
2018-05-17T17:03:41.678Z,19.75
2018-05-17T17:06:09.143Z,23.42
2018-05-17T17:08:36.566Z,23.55
2018-05-17T17:11:04.755Z,21.83
2018-05-17T17:13:32.178Z,20.02
2018-05-17T17:15:59.635Z,23.75
2018-05-17T17:18:27.122Z,22.05
2018-05-17T17:20:54.578Z,16.27
2018-05-17T17:23:22.002Z,23.55
2018-05-17T17:25:50.250Z,22.60
2018-05-17T17:28:18.419Z,19.67
2018-05-17T17:30:45.846Z,26.85
2018-05-17T17:33:13.358Z,27.13
2018-05-17T17:35:40.831Z,28.58
2018-05-17T17:38:08.255Z,20.85
2018-05-17T17:40:41.442Z,20.55
2018-05-17T17:43:09.694Z,26.85
2018-05-17T17:45:37.127Z,24.12
2018-05-17T17:48:05.312Z,24.70
2018-05-17T17:50:33.510Z,21.83
2018-05-17T17:53:01.714Z,17.48
2018-05-17T17:55:29.286Z,22.05
2018-05-17T17:57:56.757Z,18.95
2018-05-17T18:00:24.228Z,18.80
2018-05-17T18:02:51.645Z,22.25
2018-05-17T18:05:19.142Z,23.20
2018-05-17T18:07:46.501Z,22.98
2018-05-17T18:10:14.706Z,26.70
2018-05-17T18:12:42.885Z,22.52
2018-05-17T18:15:11.078Z,18.55
2018-05-17T18:17:39.281Z,24.55
2018-05-17T18:20:06.694Z,23.33
2018-05-17T18:22:34.226Z,30.25
2018-05-17T18:25:01.646Z,16.85
2018-05-17T18:27:30.592Z,22.80
2018-05-17T18:29:58.007Z,21.37
2018-05-17T18:32:25.535Z,22.50
2018-05-17T18:34:53.003Z,21.90
2018-05-17T18:37:20.478Z,20.20
2018-05-17T18:39:47.908Z,21.52
2018-05-17T18:42:15.330Z,15.27
2018-05-17T18:44:42.754Z,25.08
2018-05-17T18:47:10.978Z,25.35
2018-05-17T18:49:38.443Z,22.65
2018-05-17T18:52:05.870Z,19.80
2018-05-17T18:54:33.358Z,26.98
2018-05-17T18:57:00.777Z,22.35
2018-05-17T18:59:28.925Z,31.67
2018-05-17T19:01:57.325Z,42.75
2018-05-17T19:04:24.653Z,38.78
2018-05-17T19:06:52.082Z,27.30
2018-05-17T19:09:19.506Z,38.83
2018-05-17T19:11:47.725Z,36.75
2018-05-17T19:14:15.146Z,25.48
2018-05-17T19:16:42.570Z,18.37
2018-05-17T19:19:10.000Z,20.35
2018-05-17T19:21:38.184Z,25.27
2018-05-17T19:24:06.377Z,23.55
2018-05-17T19:26:34.566Z,21.33
2018-05-17T19:29:02.777Z,25.98
2018-05-17T19:31:30.319Z,23.52
2018-05-17T19:33:57.763Z,18.50
2018-05-17T19:36:25.873Z,25.90
2018-05-17T19:38:54.073Z,27.58
2018-05-17T19:41:21.559Z,21.67
2018-05-17T19:43:48.994Z,27.15
2018-05-17T19:46:17.182Z,22.05
2018-05-17T19:48:45.374Z,27.15
2018-05-17T19:51:13.586Z,24.45
2018-05-17T19:53:41.018Z,17.98
2018-05-17T19:56:09.214Z,26.27
2018-05-17T19:58:37.468Z,26.02
2018-05-17T20:01:04.902Z,18.87
2018-05-17T20:03:32.328Z,19.02
2018-05-17T20:05:59.752Z,19.40
2018-05-17T20:08:27.188Z,24.98
2018-05-17T20:10:55.394Z,21.20
2018-05-17T20:13:22.818Z,26.15
2018-05-17T20:15:50.242Z,20.17
2018-05-17T20:18:17.670Z,26.02
2018-05-17T20:20:45.855Z,24.87
2018-05-17T20:23:14.075Z,26.83
2018-05-17T20:25:41.557Z,26.20
2018-05-17T20:28:08.985Z,22.60
2018-05-17T20:30:37.206Z,26.65
2018-05-17T20:33:04.629Z,20.88
2018-05-17T20:35:32.146Z,21.95
2018-05-17T20:37:59.568Z,21.40
2018-05-17T20:40:27.082Z,28.58
2018-05-17T20:42:54.547Z,18.62
2018-05-17T20:45:22.023Z,23.83
2018-05-17T20:47:49.490Z,21.92
2018-05-17T20:50:16.922Z,23.48
2018-05-17T20:52:44.434Z,23.05
2018-05-17T20:55:11.885Z,19.15
2018-05-17T20:57:40.099Z,24.45
2018-05-17T21:00:08.254Z,15.27
2018-05-17T21:02:36.467Z,23.05
2018-05-17T21:05:04.907Z,19.75
2018-05-17T21:07:33.842Z,20.10
2018-05-17T21:10:01.274Z,16.17
2018-05-17T21:12:28.699Z,16.40
2018-05-17T21:14:56.166Z,25.65
2018-05-17T21:17:23.653Z,23.58
2018-05-17T21:19:51.110Z,25.40
2018-05-17T21:22:18.579Z,23.77
2018-05-17T21:24:46.046Z,17.45
2018-05-17T21:27:13.599Z,15.05
2018-05-17T21:29:40.942Z,17.70
2018-05-17T21:32:08.434Z,19.42
2018-05-17T21:34:36.672Z,20.42
2018-05-17T21:37:04.829Z,20.95
2018-05-17T21:39:32.388Z,20.40
2018-05-17T21:41:59.731Z,21.02
2018-05-17T21:44:27.154Z,20.35
2018-05-17T21:46:54.587Z,20.27
2018-05-17T21:49:22.773Z,18.70
2018-05-17T21:51:50.987Z,19.02
2018-05-17T21:54:18.406Z,26.90
2018-05-17T21:56:45.918Z,26.98
2018-05-17T21:59:13.343Z,28.45
2018-05-17T22:01:40.861Z,25.40
2018-05-17T22:04:08.327Z,20.00
2018-05-17T22:06:35.758Z,22.20
2018-05-17T22:09:03.178Z,20.23
2018-05-17T22:11:30.745Z,17.02
2018-05-17T22:13:58.166Z,17.83
2018-05-17T22:16:25.590Z,18.70
2018-05-17T22:18:53.015Z,13.32
2018-05-17T22:21:21.232Z,21.52
2018-05-17T22:23:48.646Z,15.57
2018-05-17T22:26:16.846Z,18.70
2018-05-17T22:28:44.363Z,21.90
2018-05-17T22:31:11.835Z,21.52
2018-05-17T22:33:39.297Z,18.60
2018-05-17T22:36:06.772Z,19.17
2018-05-17T22:38:34.202Z,21.83
2018-05-17T22:41:01.627Z,19.33
2018-05-17T22:43:29.080Z,21.85
2018-05-17T22:45:56.545Z,18.15
2018-05-17T22:48:23.966Z,17.65
2018-05-17T22:50:52.202Z,18.73
2018-05-17T22:53:20.493Z,16.37
2018-05-17T22:55:48.687Z,21.52
2018-05-17T22:58:28.138Z,20.48
2018-05-17T23:00:55.561Z,19.12
2018-05-17T23:03:23.074Z,20.92
2018-05-17T23:05:50.502Z,18.87
2018-05-17T23:08:17.926Z,18.62
2018-05-17T23:10:45.375Z,13.82
2018-05-17T23:13:12.806Z,20.95
2018-05-17T23:15:40.323Z,17.62
2018-05-17T23:18:07.790Z,23.70
2018-05-17T23:20:35.209Z,17.52
2018-05-17T23:23:03.443Z,25.35
2018-05-17T23:25:30.914Z,23.05
2018-05-17T23:27:58.391Z,19.05
2018-05-17T23:30:25.806Z,16.25
2018-05-17T23:32:53.327Z,14.90
2018-05-17T23:35:20.746Z,20.55
2018-05-17T23:37:48.166Z,18.05
2018-05-17T23:40:27.619Z,21.65
2018-05-17T23:42:55.042Z,21.02
2018-05-17T23:45:22.466Z,20.55
2018-05-17T23:47:49.927Z,20.27
2018-05-17T23:50:17.395Z,23.17
2018-05-17T23:52:44.822Z,20.52
2018-05-17T23:55:13.030Z,18.83
2018-05-17T23:57:41.219Z,18.35
